sensor_id;sensor_type;location;lat;lon;timestamp;P1;durP1;ratioP1;P2;durP2;ratioP2
29570;SDS011;16814;52.118;11.436;2024-01-30T00:02:14;14.73;;;9.55;;
29570;SDS011;16814;52.118;11.436;2024-01-30T00:04:40;17.00;;;9.97;;
29570;SDS011;16814;52.118;11.436;2024-01-30T00:07:05;22.33;;;10.88;;
29570;SDS011;16814;52.118;11.436;2024-01-30T00:09:31;19.13;;;10.80;;
29570;SDS011;16814;52.118;11.436;2024-01-30T00:11:56;17.77;;;10.45;;
29570;SDS011;16814;52.118;11.436;2024-01-30T00:14:22;20.77;;;11.37;;
29570;SDS011;16814;52.118;11.436;2024-01-30T00:16:48;18.73;;;10.50;;
29570;SDS011;16814;52.118;11.436;2024-01-30T00:19:14;19.08;;;10.23;;
29570;SDS011;16814;52.118;11.436;2024-01-30T00:21:39;17.87;;;10.83;;
29570;SDS011;16814;52.118;11.436;2024-01-30T00:24:05;22.90;;;12.03;;
29570;SDS011;16814;52.118;11.436;2024-01-30T00:26:30;21.05;;;11.57;;
29570;SDS011;16814;52.118;11.436;2024-01-30T00:28:56;18.17;;;11.10;;
29570;SDS011;16814;52.118;11.436;2024-01-30T00:31:21;19.52;;;10.57;;
29570;SDS011;16814;52.118;11.436;2024-01-30T00:33:47;21.13;;;11.33;;
29570;SDS011;16814;52.118;11.436;2024-01-30T00:36:12;20.33;;;11.10;;
29570;SDS011;16814;52.118;11.436;2024-01-30T00:38:38;17.40;;;10.75;;
29570;SDS011;16814;52.118;11.436;2024-01-30T00:41:03;18.67;;;10.97;;
29570;SDS011;16814;52.118;11.436;2024-01-30T00:43:29;18.08;;;10.57;;
29570;SDS011;16814;52.118;11.436;2024-01-30T00:45:56;18.02;;;10.80;;
29570;SDS011;16814;52.118;11.436;2024-01-30T00:48:22;20.30;;;11.15;;
29570;SDS011;16814;52.118;11.436;2024-01-30T00:50:47;22.33;;;12.00;;
29570;SDS011;16814;52.118;11.436;2024-01-30T00:53:13;17.55;;;10.90;;
29570;SDS011;16814;52.118;11.436;2024-01-30T00:55:38;18.10;;;10.50;;
29570;SDS011;16814;52.118;11.436;2024-01-30T00:58:04;15.82;;;9.77;;
29570;SDS011;16814;52.118;11.436;2024-01-30T01:00:30;16.43;;;10.13;;
29570;SDS011;16814;52.118;11.436;2024-01-30T01:02:57;15.35;;;9.75;;
29570;SDS011;16814;52.118;11.436;2024-01-30T01:05:22;19.23;;;11.50;;
29570;SDS011;16814;52.118;11.436;2024-01-30T01:07:48;17.83;;;10.47;;
29570;SDS011;16814;52.118;11.436;2024-01-30T01:10:14;17.20;;;9.93;;
29570;SDS011;16814;52.118;11.436;2024-01-30T01:12:41;16.17;;;10.10;;
29570;SDS011;16814;52.118;11.436;2024-01-30T01:15:06;16.38;;;10.30;;
29570;SDS011;16814;52.118;11.436;2024-01-30T01:17:34;15.98;;;9.95;;
29570;SDS011;16814;52.118;11.436;2024-01-30T01:20:04;17.67;;;10.43;;
29570;SDS011;16814;52.118;11.436;2024-01-30T01:22:33;17.20;;;10.02;;
29570;SDS011;16814;52.118;11.436;2024-01-30T01:24:59;16.53;;;9.97;;
29570;SDS011;16814;52.118;11.436;2024-01-30T01:27:25;16.77;;;9.90;;
29570;SDS011;16814;52.118;11.436;2024-01-30T01:29:51;14.73;;;9.70;;
29570;SDS011;16814;52.118;11.436;2024-01-30T01:32:18;15.83;;;10.40;;
29570;SDS011;16814;52.118;11.436;2024-01-30T01:34:43;16.73;;;9.88;;
29570;SDS011;16814;52.118;11.436;2024-01-30T01:37:11;15.35;;;9.82;;
29570;SDS011;16814;52.118;11.436;2024-01-30T01:39:36;17.73;;;10.55;;
29570;SDS011;16814;52.118;11.436;2024-01-30T01:42:02;18.50;;;10.00;;
29570;SDS011;16814;52.118;11.436;2024-01-30T01:44:28;18.60;;;10.43;;
29570;SDS011;16814;52.118;11.436;2024-01-30T01:46:54;17.83;;;10.10;;
29570;SDS011;16814;52.118;11.436;2024-01-30T01:49:21;15.93;;;10.88;;
29570;SDS011;16814;52.118;11.436;2024-01-30T01:51:47;19.17;;;11.85;;
29570;SDS011;16814;52.118;11.436;2024-01-30T01:54:14;16.50;;;10.48;;
29570;SDS011;16814;52.118;11.436;2024-01-30T01:56:40;17.10;;;10.85;;
29570;SDS011;16814;52.118;11.436;2024-01-30T01:59:08;16.00;;;10.10;;
29570;SDS011;16814;52.118;11.436;2024-01-30T02:01:34;18.00;;;10.00;;
29570;SDS011;16814;52.118;11.436;2024-01-30T02:04:01;19.73;;;10.93;;
29570;SDS011;16814;52.118;11.436;2024-01-30T02:06:27;18.67;;;10.87;;
29570;SDS011;16814;52.118;11.436;2024-01-30T02:08:56;19.30;;;11.02;;
29570;SDS011;16814;52.118;11.436;2024-01-30T02:11:22;18.63;;;11.07;;
29570;SDS011;16814;52.118;11.436;2024-01-30T02:13:48;18.60;;;11.65;;
29570;SDS011;16814;52.118;11.436;2024-01-30T02:16:14;18.27;;;11.30;;
29570;SDS011;16814;52.118;11.436;2024-01-30T02:18:39;19.50;;;11.35;;
29570;SDS011;16814;52.118;11.436;2024-01-30T02:21:12;18.13;;;11.43;;
29570;SDS011;16814;52.118;11.436;2024-01-30T02:23:38;20.83;;;12.10;;
29570;SDS011;16814;52.118;11.436;2024-01-30T02:26:05;21.83;;;12.20;;
29570;SDS011;16814;52.118;11.436;2024-01-30T02:28:31;19.42;;;11.65;;
29570;SDS011;16814;52.118;11.436;2024-01-30T02:30:57;20.33;;;11.77;;
29570;SDS011;16814;52.118;11.436;2024-01-30T02:33:22;21.77;;;12.00;;
29570;SDS011;16814;52.118;11.436;2024-01-30T02:35:48;20.47;;;12.90;;
29570;SDS011;16814;52.118;11.436;2024-01-30T02:38:14;21.95;;;11.80;;
29570;SDS011;16814;52.118;11.436;2024-01-30T02:40:40;19.73;;;12.43;;
29570;SDS011;16814;52.118;11.436;2024-01-30T02:43:06;22.83;;;12.45;;
29570;SDS011;16814;52.118;11.436;2024-01-30T02:45:31;19.17;;;12.03;;
29570;SDS011;16814;52.118;11.436;2024-01-30T02:47:57;22.98;;;12.70;;
29570;SDS011;16814;52.118;11.436;2024-01-30T02:50:22;21.50;;;12.40;;
29570;SDS011;16814;52.118;11.436;2024-01-30T02:52:48;24.33;;;12.63;;
29570;SDS011;16814;52.118;11.436;2024-01-30T02:55:13;26.27;;;11.85;;
29570;SDS011;16814;52.118;11.436;2024-01-30T02:57:42;21.88;;;12.60;;
29570;SDS011;16814;52.118;11.436;2024-01-30T03:00:08;21.00;;;12.10;;
29570;SDS011;16814;52.118;11.436;2024-01-30T03:02:34;26.80;;;13.50;;
29570;SDS011;16814;52.118;11.436;2024-01-30T03:05:00;23.20;;;12.98;;
29570;SDS011;16814;52.118;11.436;2024-01-30T03:07:26;21.80;;;12.73;;
29570;SDS011;16814;52.118;11.436;2024-01-30T03:09:51;20.60;;;12.40;;
29570;SDS011;16814;52.118;11.436;2024-01-30T03:12:17;26.27;;;12.48;;
29570;SDS011;16814;52.118;11.436;2024-01-30T03:14:43;21.23;;;12.57;;
29570;SDS011;16814;52.118;11.436;2024-01-30T03:17:08;21.27;;;13.10;;
29570;SDS011;16814;52.118;11.436;2024-01-30T03:19:34;19.27;;;12.07;;
29570;SDS011;16814;52.118;11.436;2024-01-30T03:21:59;22.47;;;12.90;;
29570;SDS011;16814;52.118;11.436;2024-01-30T03:24:25;23.33;;;13.18;;
29570;SDS011;16814;52.118;11.436;2024-01-30T03:26:51;24.60;;;12.97;;
29570;SDS011;16814;52.118;11.436;2024-01-30T03:29:16;21.48;;;13.60;;
29570;SDS011;16814;52.118;11.436;2024-01-30T03:31:42;22.10;;;13.70;;
29570;SDS011;16814;52.118;11.436;2024-01-30T03:34:07;22.77;;;13.57;;
29570;SDS011;16814;52.118;11.436;2024-01-30T03:36:33;23.73;;;15.05;;
29570;SDS011;16814;52.118;11.436;2024-01-30T03:38:59;25.95;;;14.10;;
29570;SDS011;16814;52.118;11.436;2024-01-30T03:41:25;20.70;;;12.77;;
29570;SDS011;16814;52.118;11.436;2024-01-30T03:43:51;19.87;;;12.50;;
29570;SDS011;16814;52.118;11.436;2024-01-30T03:46:16;21.83;;;12.57;;
29570;SDS011;16814;52.118;11.436;2024-01-30T03:48:42;22.00;;;11.53;;
29570;SDS011;16814;52.118;11.436;2024-01-30T03:51:08;20.15;;;11.30;;
29570;SDS011;16814;52.118;11.436;2024-01-30T03:53:39;18.30;;;11.55;;
29570;SDS011;16814;52.118;11.436;2024-01-30T03:56:08;20.15;;;11.40;;
29570;SDS011;16814;52.118;11.436;2024-01-30T03:58:34;20.90;;;11.80;;
29570;SDS011;16814;52.118;11.436;2024-01-30T04:00:59;20.70;;;12.07;;
29570;SDS011;16814;52.118;11.436;2024-01-30T04:03:25;22.87;;;12.87;;
29570;SDS011;16814;52.118;11.436;2024-01-30T04:05:53;23.95;;;14.30;;
29570;SDS011;16814;52.118;11.436;2024-01-30T04:08:19;21.27;;;13.63;;
29570;SDS011;16814;52.118;11.436;2024-01-30T04:10:46;21.38;;;13.73;;
29570;SDS011;16814;52.118;11.436;2024-01-30T04:13:12;24.38;;;14.25;;
29570;SDS011;16814;52.118;11.436;2024-01-30T04:15:37;20.93;;;13.30;;
29570;SDS011;16814;52.118;11.436;2024-01-30T04:18:03;19.00;;;13.00;;
29570;SDS011;16814;52.118;11.436;2024-01-30T04:20:29;18.10;;;12.18;;
29570;SDS011;16814;52.118;11.436;2024-01-30T04:22:54;23.10;;;12.83;;
29570;SDS011;16814;52.118;11.436;2024-01-30T04:25:20;24.55;;;13.68;;
29570;SDS011;16814;52.118;11.436;2024-01-30T04:27:45;23.80;;;14.57;;
29570;SDS011;16814;52.118;11.436;2024-01-30T04:30:11;23.37;;;14.03;;
29570;SDS011;16814;52.118;11.436;2024-01-30T04:32:37;23.27;;;15.80;;
29570;SDS011;16814;52.118;11.436;2024-01-30T04:35:03;27.17;;;15.48;;
29570;SDS011;16814;52.118;11.436;2024-01-30T04:37:28;26.90;;;15.63;;
29570;SDS011;16814;52.118;11.436;2024-01-30T04:39:54;24.57;;;14.83;;
29570;SDS011;16814;52.118;11.436;2024-01-30T04:42:20;23.47;;;14.43;;
29570;SDS011;16814;52.118;11.436;2024-01-30T04:44:45;21.92;;;14.00;;
29570;SDS011;16814;52.118;11.436;2024-01-30T04:47:11;23.47;;;13.50;;
29570;SDS011;16814;52.118;11.436;2024-01-30T04:49:38;21.52;;;12.82;;
29570;SDS011;16814;52.118;11.436;2024-01-30T04:52:05;22.92;;;13.88;;
29570;SDS011;16814;52.118;11.436;2024-01-30T04:54:30;21.58;;;12.93;;
29570;SDS011;16814;52.118;11.436;2024-01-30T04:56:56;21.33;;;12.30;;
29570;SDS011;16814;52.118;11.436;2024-01-30T04:59:21;23.92;;;13.18;;
29570;SDS011;16814;52.118;11.436;2024-01-30T05:01:47;26.50;;;14.13;;
29570;SDS011;16814;52.118;11.436;2024-01-30T05:04:12;20.03;;;13.13;;
29570;SDS011;16814;52.118;11.436;2024-01-30T05:06:38;20.48;;;14.15;;
29570;SDS011;16814;52.118;11.436;2024-01-30T05:09:03;23.87;;;13.70;;
29570;SDS011;16814;52.118;11.436;2024-01-30T05:11:29;22.30;;;13.35;;
29570;SDS011;16814;52.118;11.436;2024-01-30T05:13:55;38.60;;;22.47;;
29570;SDS011;16814;52.118;11.436;2024-01-30T05:16:21;85.65;;;42.42;;
29570;SDS011;16814;52.118;11.436;2024-01-30T05:18:46;50.90;;;27.67;;
29570;SDS011;16814;52.118;11.436;2024-01-30T05:21:12;79.15;;;42.50;;
29570;SDS011;16814;52.118;11.436;2024-01-30T05:23:37;46.00;;;26.60;;
29570;SDS011;16814;52.118;11.436;2024-01-30T05:26:03;24.97;;;14.70;;
29570;SDS011;16814;52.118;11.436;2024-01-30T05:28:29;29.38;;;15.30;;
29570;SDS011;16814;52.118;11.436;2024-01-30T05:30:55;27.55;;;15.77;;
29570;SDS011;16814;52.118;11.436;2024-01-30T05:33:21;27.58;;;16.10;;
29570;SDS011;16814;52.118;11.436;2024-01-30T05:35:47;30.00;;;16.17;;
29570;SDS011;16814;52.118;11.436;2024-01-30T05:38:13;37.28;;;22.25;;
29570;SDS011;16814;52.118;11.436;2024-01-30T05:40:40;33.13;;;19.08;;
29570;SDS011;16814;52.118;11.436;2024-01-30T05:43:05;33.20;;;18.73;;
29570;SDS011;16814;52.118;11.436;2024-01-30T05:45:32;30.10;;;17.40;;
29570;SDS011;16814;52.118;11.436;2024-01-30T05:47:59;29.90;;;18.20;;
29570;SDS011;16814;52.118;11.436;2024-01-30T05:50:24;34.05;;;20.80;;
29570;SDS011;16814;52.118;11.436;2024-01-30T05:52:51;34.85;;;20.52;;
29570;SDS011;16814;52.118;11.436;2024-01-30T05:55:16;30.30;;;18.60;;
29570;SDS011;16814;52.118;11.436;2024-01-30T05:57:42;26.70;;;15.53;;
29570;SDS011;16814;52.118;11.436;2024-01-30T06:00:08;27.60;;;16.77;;
29570;SDS011;16814;52.118;11.436;2024-01-30T06:02:33;42.45;;;23.50;;
29570;SDS011;16814;52.118;11.436;2024-01-30T06:04:59;75.90;;;41.35;;
29570;SDS011;16814;52.118;11.436;2024-01-30T06:07:24;42.63;;;24.33;;
29570;SDS011;16814;52.118;11.436;2024-01-30T06:09:50;34.80;;;19.37;;
29570;SDS011;16814;52.118;11.436;2024-01-30T06:12:15;28.13;;;16.77;;
29570;SDS011;16814;52.118;11.436;2024-01-30T06:14:41;43.07;;;24.40;;
29570;SDS011;16814;52.118;11.436;2024-01-30T06:17:07;46.05;;;22.95;;
29570;SDS011;16814;52.118;11.436;2024-01-30T06:19:33;33.30;;;18.98;;
29570;SDS011;16814;52.118;11.436;2024-01-30T06:21:59;32.10;;;17.90;;
29570;SDS011;16814;52.118;11.436;2024-01-30T06:24:25;29.97;;;16.77;;
29570;SDS011;16814;52.118;11.436;2024-01-30T06:26:51;27.30;;;16.83;;
29570;SDS011;16814;52.118;11.436;2024-01-30T06:29:16;27.13;;;16.50;;
29570;SDS011;16814;52.118;11.436;2024-01-30T06:31:42;27.02;;;16.92;;
29570;SDS011;16814;52.118;11.436;2024-01-30T06:34:08;32.40;;;16.83;;
29570;SDS011;16814;52.118;11.436;2024-01-30T06:36:37;28.90;;;16.03;;
29570;SDS011;16814;52.118;11.436;2024-01-30T06:39:02;24.40;;;15.25;;
29570;SDS011;16814;52.118;11.436;2024-01-30T06:41:28;26.83;;;15.93;;
29570;SDS011;16814;52.118;11.436;2024-01-30T06:43:54;24.08;;;14.73;;
29570;SDS011;16814;52.118;11.436;2024-01-30T06:46:20;38.28;;;14.52;;
29570;SDS011;16814;52.118;11.436;2024-01-30T06:48:46;27.03;;;16.60;;
29570;SDS011;16814;52.118;11.436;2024-01-30T06:51:11;26.60;;;17.27;;
29570;SDS011;16814;52.118;11.436;2024-01-30T06:53:37;32.35;;;17.90;;
29570;SDS011;16814;52.118;11.436;2024-01-30T06:56:03;26.83;;;17.77;;
29570;SDS011;16814;52.118;11.436;2024-01-30T06:58:29;30.07;;;16.37;;
29570;SDS011;16814;52.118;11.436;2024-01-30T07:00:55;32.78;;;17.88;;
29570;SDS011;16814;52.118;11.436;2024-01-30T07:03:21;31.08;;;17.83;;
29570;SDS011;16814;52.118;11.436;2024-01-30T07:05:47;33.58;;;17.73;;
29570;SDS011;16814;52.118;11.436;2024-01-30T07:08:12;29.60;;;17.77;;
29570;SDS011;16814;52.118;11.436;2024-01-30T07:10:38;27.67;;;17.65;;
29570;SDS011;16814;52.118;11.436;2024-01-30T07:13:04;28.43;;;17.37;;
29570;SDS011;16814;52.118;11.436;2024-01-30T07:15:30;37.17;;;18.70;;
29570;SDS011;16814;52.118;11.436;2024-01-30T07:17:56;46.67;;;23.77;;
29570;SDS011;16814;52.118;11.436;2024-01-30T07:20:22;43.47;;;21.05;;
29570;SDS011;16814;52.118;11.436;2024-01-30T07:22:47;29.38;;;17.27;;
29570;SDS011;16814;52.118;11.436;2024-01-30T07:25:13;31.17;;;17.13;;
29570;SDS011;16814;52.118;11.436;2024-01-30T07:27:39;31.73;;;16.97;;
29570;SDS011;16814;52.118;11.436;2024-01-30T07:30:04;31.80;;;17.02;;
29570;SDS011;16814;52.118;11.436;2024-01-30T07:32:30;26.75;;;16.30;;
29570;SDS011;16814;52.118;11.436;2024-01-30T07:34:56;26.30;;;15.73;;
29570;SDS011;16814;52.118;11.436;2024-01-30T07:37:22;29.93;;;16.10;;
29570;SDS011;16814;52.118;11.436;2024-01-30T07:39:47;25.48;;;15.48;;
29570;SDS011;16814;52.118;11.436;2024-01-30T07:42:13;27.10;;;16.13;;
29570;SDS011;16814;52.118;11.436;2024-01-30T07:44:38;27.57;;;16.07;;
29570;SDS011;16814;52.118;11.436;2024-01-30T07:47:04;30.05;;;17.95;;
29570;SDS011;16814;52.118;11.436;2024-01-30T07:49:30;40.43;;;22.53;;
29570;SDS011;16814;52.118;11.436;2024-01-30T07:51:55;41.08;;;21.58;;
29570;SDS011;16814;52.118;11.436;2024-01-30T07:54:21;37.10;;;19.37;;
29570;SDS011;16814;52.118;11.436;2024-01-30T07:56:46;29.13;;;18.00;;
29570;SDS011;16814;52.118;11.436;2024-01-30T07:59:12;35.17;;;20.00;;
29570;SDS011;16814;52.118;11.436;2024-01-30T08:01:37;29.97;;;17.80;;
29570;SDS011;16814;52.118;11.436;2024-01-30T08:04:03;28.45;;;16.67;;
29570;SDS011;16814;52.118;11.436;2024-01-30T08:06:29;26.80;;;15.17;;
29570;SDS011;16814;52.118;11.436;2024-01-30T08:08:54;29.67;;;16.38;;
29570;SDS011;16814;52.118;11.436;2024-01-30T08:11:20;28.33;;;16.00;;
29570;SDS011;16814;52.118;11.436;2024-01-30T08:13:51;27.17;;;14.35;;
29570;SDS011;16814;52.118;11.436;2024-01-30T08:16:17;23.75;;;13.25;;
29570;SDS011;16814;52.118;11.436;2024-01-30T08:18:43;27.87;;;12.67;;
29570;SDS011;16814;52.118;11.436;2024-01-30T08:21:08;28.15;;;12.32;;
29570;SDS011;16814;52.118;11.436;2024-01-30T08:23:34;29.17;;;13.10;;
29570;SDS011;16814;52.118;11.436;2024-01-30T08:25:59;43.30;;;13.02;;
29570;SDS011;16814;52.118;11.436;2024-01-30T08:28:25;39.37;;;12.50;;
29570;SDS011;16814;52.118;11.436;2024-01-30T08:30:51;24.55;;;12.45;;
29570;SDS011;16814;52.118;11.436;2024-01-30T08:33:16;23.57;;;11.90;;
29570;SDS011;16814;52.118;11.436;2024-01-30T08:35:42;23.48;;;11.70;;
29570;SDS011;16814;52.118;11.436;2024-01-30T08:38:08;20.17;;;10.80;;
29570;SDS011;16814;52.118;11.436;2024-01-30T08:40:33;20.17;;;10.35;;
29570;SDS011;16814;52.118;11.436;2024-01-30T08:42:59;21.30;;;10.68;;
29570;SDS011;16814;52.118;11.436;2024-01-30T08:45:25;20.10;;;11.33;;
29570;SDS011;16814;52.118;11.436;2024-01-30T08:47:50;21.60;;;11.13;;
29570;SDS011;16814;52.118;11.436;2024-01-30T08:50:16;27.10;;;11.20;;
29570;SDS011;16814;52.118;11.436;2024-01-30T08:52:42;19.57;;;11.20;;
29570;SDS011;16814;52.118;11.436;2024-01-30T08:55:07;22.05;;;11.25;;
29570;SDS011;16814;52.118;11.436;2024-01-30T08:57:33;24.57;;;11.10;;
29570;SDS011;16814;52.118;11.436;2024-01-30T08:59:58;25.63;;;10.83;;
29570;SDS011;16814;52.118;11.436;2024-01-30T09:02:24;24.88;;;11.75;;
29570;SDS011;16814;52.118;11.436;2024-01-30T09:04:49;22.33;;;11.87;;
29570;SDS011;16814;52.118;11.436;2024-01-30T09:07:15;27.25;;;12.05;;
29570;SDS011;16814;52.118;11.436;2024-01-30T09:09:40;26.83;;;11.80;;
29570;SDS011;16814;52.118;11.436;2024-01-30T09:12:06;23.35;;;11.82;;
29570;SDS011;16814;52.118;11.436;2024-01-30T09:14:34;24.50;;;11.00;;
29570;SDS011;16814;52.118;11.436;2024-01-30T09:17:03;20.77;;;10.55;;
29570;SDS011;16814;52.118;11.436;2024-01-30T09:19:29;21.70;;;10.90;;
29570;SDS011;16814;52.118;11.436;2024-01-30T09:21:55;14.98;;;9.63;;
29570;SDS011;16814;52.118;11.436;2024-01-30T09:24:21;19.57;;;9.90;;
29570;SDS011;16814;52.118;11.436;2024-01-30T09:26:46;22.25;;;10.63;;
29570;SDS011;16814;52.118;11.436;2024-01-30T09:29:12;20.80;;;10.27;;
29570;SDS011;16814;52.118;11.436;2024-01-30T09:31:37;27.10;;;11.43;;
29570;SDS011;16814;52.118;11.436;2024-01-30T09:34:03;21.70;;;11.32;;
29570;SDS011;16814;52.118;11.436;2024-01-30T09:36:28;23.43;;;11.27;;
29570;SDS011;16814;52.118;11.436;2024-01-30T09:38:54;22.67;;;11.27;;
29570;SDS011;16814;52.118;11.436;2024-01-30T09:41:19;24.30;;;11.65;;
29570;SDS011;16814;52.118;11.436;2024-01-30T09:43:47;29.02;;;13.07;;
29570;SDS011;16814;52.118;11.436;2024-01-30T09:46:16;30.30;;;13.45;;
29570;SDS011;16814;52.118;11.436;2024-01-30T09:48:43;34.50;;;12.90;;
29570;SDS011;16814;52.118;11.436;2024-01-30T09:51:11;35.90;;;13.43;;
29570;SDS011;16814;52.118;11.436;2024-01-30T09:53:40;37.53;;;12.75;;
29570;SDS011;16814;52.118;11.436;2024-01-30T09:56:08;33.45;;;11.75;;
29570;SDS011;16814;52.118;11.436;2024-01-30T09:58:33;25.88;;;10.57;;
29570;SDS011;16814;52.118;11.436;2024-01-30T10:00:59;23.80;;;10.33;;
29570;SDS011;16814;52.118;11.436;2024-01-30T10:03:25;17.95;;;10.35;;
29570;SDS011;16814;52.118;11.436;2024-01-30T10:05:52;20.47;;;10.60;;
29570;SDS011;16814;52.118;11.436;2024-01-30T10:08:18;22.93;;;10.73;;
29570;SDS011;16814;52.118;11.436;2024-01-30T10:10:46;20.77;;;10.18;;
29570;SDS011;16814;52.118;11.436;2024-01-30T10:13:13;22.52;;;9.95;;
29570;SDS011;16814;52.118;11.436;2024-01-30T10:15:38;16.50;;;9.13;;
29570;SDS011;16814;52.118;11.436;2024-01-30T10:18:05;16.77;;;9.20;;
29570;SDS011;16814;52.118;11.436;2024-01-30T10:20:31;15.40;;;9.10;;
29570;SDS011;16814;52.118;11.436;2024-01-30T10:22:57;15.63;;;8.35;;
29570;SDS011;16814;52.118;11.436;2024-01-30T10:25:23;20.27;;;10.05;;
29570;SDS011;16814;52.118;11.436;2024-01-30T10:27:53;16.55;;;8.85;;
29570;SDS011;16814;52.118;11.436;2024-01-30T10:30:20;15.20;;;9.05;;
29570;SDS011;16814;52.118;11.436;2024-01-30T10:32:49;17.65;;;9.75;;
29570;SDS011;16814;52.118;11.436;2024-01-30T10:35:15;18.48;;;9.27;;
29570;SDS011;16814;52.118;11.436;2024-01-30T10:37:43;17.02;;;9.00;;
29570;SDS011;16814;52.118;11.436;2024-01-30T10:40:09;13.90;;;8.45;;
29570;SDS011;16814;52.118;11.436;2024-01-30T10:42:39;17.17;;;10.07;;
29570;SDS011;16814;52.118;11.436;2024-01-30T10:45:14;15.80;;;9.35;;
29570;SDS011;16814;52.118;11.436;2024-01-30T10:47:44;19.42;;;9.77;;
29570;SDS011;16814;52.118;11.436;2024-01-30T10:50:14;17.98;;;9.60;;
29570;SDS011;16814;52.118;11.436;2024-01-30T10:52:41;18.27;;;9.30;;
29570;SDS011;16814;52.118;11.436;2024-01-30T10:55:09;19.17;;;9.23;;
29570;SDS011;16814;52.118;11.436;2024-01-30T10:57:35;16.15;;;8.55;;
29570;SDS011;16814;52.118;11.436;2024-01-30T11:00:02;14.55;;;9.18;;
29570;SDS011;16814;52.118;11.436;2024-01-30T11:02:36;25.38;;;13.00;;
29570;SDS011;16814;52.118;11.436;2024-01-30T11:05:08;20.52;;;10.73;;
29570;SDS011;16814;52.118;11.436;2024-01-30T11:07:34;18.05;;;9.45;;
29570;SDS011;16814;52.118;11.436;2024-01-30T11:10:00;16.43;;;9.53;;
29570;SDS011;16814;52.118;11.436;2024-01-30T11:12:29;14.40;;;8.70;;
29570;SDS011;16814;52.118;11.436;2024-01-30T11:15:02;15.35;;;8.90;;
29570;SDS011;16814;52.118;11.436;2024-01-30T11:17:42;14.70;;;8.75;;
29570;SDS011;16814;52.118;11.436;2024-01-30T11:20:12;14.90;;;8.35;;
29570;SDS011;16814;52.118;11.436;2024-01-30T11:22:41;19.83;;;10.65;;
29570;SDS011;16814;52.118;11.436;2024-01-30T11:25:13;18.33;;;10.85;;
29570;SDS011;16814;52.118;11.436;2024-01-30T11:27:40;16.63;;;9.80;;
29570;SDS011;16814;52.118;11.436;2024-01-30T11:30:07;22.50;;;9.13;;
29570;SDS011;16814;52.118;11.436;2024-01-30T11:32:33;17.13;;;9.25;;
29570;SDS011;16814;52.118;11.436;2024-01-30T11:34:58;15.87;;;8.70;;
29570;SDS011;16814;52.118;11.436;2024-01-30T11:37:25;16.13;;;8.90;;
29570;SDS011;16814;52.118;11.436;2024-01-30T11:39:53;14.27;;;8.35;;
29570;SDS011;16814;52.118;11.436;2024-01-30T11:42:21;14.65;;;8.73;;
29570;SDS011;16814;52.118;11.436;2024-01-30T11:44:49;14.60;;;8.32;;
29570;SDS011;16814;52.118;11.436;2024-01-30T11:47:15;14.43;;;7.63;;
29570;SDS011;16814;52.118;11.436;2024-01-30T11:49:41;16.50;;;7.80;;
29570;SDS011;16814;52.118;11.436;2024-01-30T11:52:08;19.27;;;7.80;;
29570;SDS011;16814;52.118;11.436;2024-01-30T11:54:34;18.75;;;7.85;;
29570;SDS011;16814;52.118;11.436;2024-01-30T11:57:00;15.02;;;7.80;;
29570;SDS011;16814;52.118;11.436;2024-01-30T11:59:25;13.77;;;7.40;;
29570;SDS011;16814;52.118;11.436;2024-01-30T12:01:54;14.40;;;7.80;;
29570;SDS011;16814;52.118;11.436;2024-01-30T12:04:20;14.85;;;8.18;;
29570;SDS011;16814;52.118;11.436;2024-01-30T12:06:45;12.77;;;7.37;;
29570;SDS011;16814;52.118;11.436;2024-01-30T12:09:15;13.70;;;7.72;;
29570;SDS011;16814;52.118;11.436;2024-01-30T12:11:48;15.38;;;8.43;;
29570;SDS011;16814;52.118;11.436;2024-01-30T12:14:15;15.18;;;8.55;;
29570;SDS011;16814;52.118;11.436;2024-01-30T12:16:41;12.57;;;7.45;;
29570;SDS011;16814;52.118;11.436;2024-01-30T12:19:07;12.20;;;7.55;;
29570;SDS011;16814;52.118;11.436;2024-01-30T12:21:33;12.73;;;7.53;;
29570;SDS011;16814;52.118;11.436;2024-01-30T12:24:00;13.43;;;8.45;;
29570;SDS011;16814;52.118;11.436;2024-01-30T12:26:26;13.00;;;7.77;;
29570;SDS011;16814;52.118;11.436;2024-01-30T12:28:55;14.50;;;7.75;;
29570;SDS011;16814;52.118;11.436;2024-01-30T12:31:31;15.27;;;8.48;;
29570;SDS011;16814;52.118;11.436;2024-01-30T12:33:59;19.80;;;8.50;;
29570;SDS011;16814;52.118;11.436;2024-01-30T12:36:25;14.30;;;8.05;;
29570;SDS011;16814;52.118;11.436;2024-01-30T12:38:51;14.30;;;8.18;;
29570;SDS011;16814;52.118;11.436;2024-01-30T12:41:16;15.32;;;8.43;;
29570;SDS011;16814;52.118;11.436;2024-01-30T12:43:42;15.95;;;8.18;;
29570;SDS011;16814;52.118;11.436;2024-01-30T12:46:08;15.15;;;8.60;;
29570;SDS011;16814;52.118;11.436;2024-01-30T12:48:34;14.83;;;8.80;;
29570;SDS011;16814;52.118;11.436;2024-01-30T12:51:00;14.07;;;8.60;;
29570;SDS011;16814;52.118;11.436;2024-01-30T12:53:25;14.52;;;8.35;;
29570;SDS011;16814;52.118;11.436;2024-01-30T12:55:51;14.47;;;8.23;;
29570;SDS011;16814;52.118;11.436;2024-01-30T12:58:19;18.73;;;8.98;;
29570;SDS011;16814;52.118;11.436;2024-01-30T13:00:44;15.80;;;9.03;;
29570;SDS011;16814;52.118;11.436;2024-01-30T13:03:10;18.00;;;9.00;;
29570;SDS011;16814;52.118;11.436;2024-01-30T13:05:36;19.70;;;9.18;;
29570;SDS011;16814;52.118;11.436;2024-01-30T13:08:02;18.13;;;8.65;;
29570;SDS011;16814;52.118;11.436;2024-01-30T13:10:28;13.02;;;8.30;;
29570;SDS011;16814;52.118;11.436;2024-01-30T13:12:53;20.23;;;8.77;;
29570;SDS011;16814;52.118;11.436;2024-01-30T13:15:19;15.27;;;8.37;;
29570;SDS011;16814;52.118;11.436;2024-01-30T13:17:44;14.00;;;8.02;;
29570;SDS011;16814;52.118;11.436;2024-01-30T13:20:12;15.45;;;8.30;;
29570;SDS011;16814;52.118;11.436;2024-01-30T13:22:41;14.18;;;8.18;;
29570;SDS011;16814;52.118;11.436;2024-01-30T13:25:08;14.32;;;8.35;;
29570;SDS011;16814;52.118;11.436;2024-01-30T13:27:33;15.83;;;8.20;;
29570;SDS011;16814;52.118;11.436;2024-01-30T13:29:59;17.13;;;8.50;;
29570;SDS011;16814;52.118;11.436;2024-01-30T13:32:24;14.13;;;8.57;;
29570;SDS011;16814;52.118;11.436;2024-01-30T13:34:50;19.13;;;9.33;;
29570;SDS011;16814;52.118;11.436;2024-01-30T13:37:15;14.33;;;8.80;;
29570;SDS011;16814;52.118;11.436;2024-01-30T13:39:41;17.52;;;9.38;;
29570;SDS011;16814;52.118;11.436;2024-01-30T13:42:07;18.27;;;9.70;;
29570;SDS011;16814;52.118;11.436;2024-01-30T13:44:34;12.43;;;8.35;;
29570;SDS011;16814;52.118;11.436;2024-01-30T13:47:00;14.70;;;7.63;;
29570;SDS011;16814;52.118;11.436;2024-01-30T13:49:26;13.73;;;7.75;;
29570;SDS011;16814;52.118;11.436;2024-01-30T13:51:52;14.77;;;8.45;;
29570;SDS011;16814;52.118;11.436;2024-01-30T13:54:18;12.02;;;7.88;;
29570;SDS011;16814;52.118;11.436;2024-01-30T13:56:43;14.90;;;8.80;;
29570;SDS011;16814;52.118;11.436;2024-01-30T13:59:09;15.18;;;8.32;;
29570;SDS011;16814;52.118;11.436;2024-01-30T14:01:34;19.13;;;8.67;;
29570;SDS011;16814;52.118;11.436;2024-01-30T14:04:00;14.90;;;8.80;;
29570;SDS011;16814;52.118;11.436;2024-01-30T14:06:25;12.33;;;8.07;;
29570;SDS011;16814;52.118;11.436;2024-01-30T14:08:51;17.45;;;8.88;;